map of SKV home
Great Circle Mapper logo
SKV - Airport
Location
City:  St. Catherine, Egypt
Name:St. Catherine International Airport
ICAO / IATA:HESC / SKV

Details
Type:Airport (Aerodrome, Airfield)
Use:International (customs port of entry)
Latitude:2841'07"N (28.685278)
Longitude:3403'45"E (34.062500)
Datum:WGS 1984
Elevation:4368 ft (1331 m)
Runways:1
Longest:6939 × 118 ft (2115 × 36 m), paved

Time
Time Zone:UTC+2
Local Time:

Weather
METAR:HESC 300900Z 00000KT CAVOK 32/07 Q1019 NOSIG
TAF:HESC 300500Z 3006/3112 34006G16KT CAVOK
BECMG 3020/3022 VRB03KT
BECMG 3106/3108 32006G16KT

Related Locations
Nearby:
Farthest:NTAV: 12084 mi / 19447 km
Raivavae, Tubuai Islands, Austral Islands, PF

Find:

   beyond  
but within

Other Information
Maps:
NOTAMs:
Links:
Sources:

  
flag of Egypt   

Sectional Chart

Flight Planning
at skyvector.com

Satellite Image

Google Maps Satellite View

 

Copyright © 2004-2014 Karl L. Swartz. All rights reserved.
The Great Circle Mapper name and logo are trademarks of the Great Circle Mapper.
All other trademarks mentioned herein belong to their respective owners.
Please see credits for attibutions and further copyright information.

  Follow gcmap on Facebook Follow gcmap on Twitter

hCard Microformat

Geo Microformat